Thunder radar more information blitzortung!


Radar de pluja more information rain snow radar


Visita la nostra xarxa de llocs de meteo:

Template documentation
and downloads

And another site



No particular awareness of the weather is required.    There are no Weather-warnings

Pagina Historial Weather Underground text

Diari Resum Juny 11, 2016 Unitats:  Mètric    Imperial   Tant
« Previous Dia
SegĂźent Dia »
Diari Setmana Mensual Anual Personalitzada
  Maxima: Minima: Media:
Temperatura: 26.6 °C 16.5 °C 21.7 °C
Punt de rosada: 15.1 °C 10.6 °C 12.9 °C
Humitat: 76 % 46 % 58 %
Wind Speed: 24.1 km/h 0.0 km/h 7.5 km/h
RĂ fegues de vent: 24.1 km/h - -
Vent:- - SE
Pression baro: 1014.8 hPa 1010.7 hPa -
Precipitacions: 0.0 mm    
Historical Graphs
 
 
Dades de taula per Juny 11, 2016
Temps Temperatura Punt de rosada Pression baro Vent Wind Speed RĂ fegues de vent Humitat Rainfall Rate (Hourly)
00:03 20.8 °C 10.6 °C 1011.7 hPa East 4.2 km/h 7.2 km/h 52 % 0.0 mm
00:05 18.4 °C 11.2 °C 1011.7 hPa Calm     63 % 0.0 mm
00:15 18.9 °C 11.2 °C 1011.7 hPa Calm     61 % 0.0 mm
00:25 19.0 °C 11.1 °C 1011.7 hPa Calm     60 % 0.0 mm
00:35 19.0 °C 11.1 °C 1011.7 hPa Calm     60 % 0.0 mm
00:45 19.0 °C 11.3 °C 1011.7 hPa Calm     61 % 0.0 mm
00:55 18.8 °C 11.4 °C 1011.7 hPa Calm     62 % 0.0 mm
01:05 18.8 °C 11.4 °C 1011.7 hPa Calm     62 % 0.0 mm
01:15 18.7 °C 11.3 °C 1011.7 hPa Calm     62 % 0.0 mm
01:25 18.7 °C 11.3 °C 1011.7 hPa Calm     62 % 0.0 mm
01:35 18.7 °C 11.5 °C 1011.7 hPa Calm     63 % 0.0 mm
01:45 18.7 °C 11.5 °C 1010.7 hPa Calm     63 % 0.0 mm
01:55 18.7 °C 11.7 °C 1010.7 hPa Calm     64 % 0.0 mm
02:15 18.7 °C 11.7 °C 1011.7 hPa Calm     64 % 0.0 mm
02:25 18.7 °C 11.5 °C 1011.7 hPa Calm     63 % 0.0 mm
02:35 18.7 °C 11.5 °C 1011.7 hPa Calm     63 % 0.0 mm
02:45 18.8 °C 11.6 °C 1011.7 hPa Calm     63 % 0.0 mm
02:55 19.0 °C 11.8 °C 1011.7 hPa Calm     63 % 0.0 mm
03:20 19.0 °C 11.8 °C 1011.7 hPa Calm   3.2 km/h 63 % 0.0 mm
03:30 19.1 °C 11.9 °C 1011.7 hPa SW 1.6 km/h 1.6 km/h 63 % 0.0 mm
03:40 19.3 °C 12.1 °C 1011.7 hPa SSW 3.2 km/h 3.2 km/h 63 % 0.0 mm
03:50 19.5 °C 12.3 °C 1011.7 hPa South 1.6 km/h 4.8 km/h 63 % 0.0 mm
04:10 20.4 °C 12.6 °C 1011.7 hPa East 4.8 km/h 4.8 km/h 61 % 0.0 mm
04:20 20.6 °C 12.8 °C 1011.7 hPa East 4.8 km/h 6.4 km/h 61 % 0.0 mm
04:30 20.8 °C 12.7 °C 1011.7 hPa ENE 3.2 km/h 9.7 km/h 60 % 0.0 mm
04:40 20.6 °C 12.8 °C 1011.7 hPa NE 8.0 km/h 8.0 km/h 61 % 0.0 mm
04:50 20.1 °C 12.8 °C 1011.7 hPa NE 4.8 km/h 6.4 km/h 63 % 0.0 mm
05:00 20.2 °C 13.2 °C 1011.7 hPa NE 3.2 km/h 6.4 km/h 64 % 0.0 mm
05:10 20.7 °C 13.9 °C 1011.7 hPa NE 3.2 km/h 4.8 km/h 65 % 0.0 mm
05:20 21.0 °C 13.9 °C 1011.7 hPa NE 3.2 km/h 6.4 km/h 64 % 0.0 mm
05:30 20.9 °C 13.6 °C 1011.7 hPa NNE 4.8 km/h 9.7 km/h 63 % 0.0 mm
05:40 21.1 °C 13.8 °C 1011.7 hPa NE 3.2 km/h 4.8 km/h 63 % 0.0 mm
10:41 21.1 °C 13.8 °C 1011.7 hPa North 5.6 km/h 5.6 km/h 63 % 0.0 mm
10:46 21.1 °C 13.8 °C 1012.8 hPa NNE 3.7 km/h 3.7 km/h 63 % 0.0 mm
10:51 21.4 °C 14.1 °C 1012.8 hPa ENE 3.7 km/h 3.7 km/h 63 % 0.0 mm
10:56 21.3 °C 14.2 °C 1012.8 hPa NE 4.2 km/h 4.2 km/h 64 % 0.0 mm
11:01 21.5 °C 14.4 °C 1012.8 hPa ENE 7.4 km/h 7.4 km/h 64 % 0.0 mm
11:06 21.5 °C 14.2 °C 1012.8 hPa ENE 5.6 km/h 5.6 km/h 63 % 0.0 mm
11:11 21.7 °C 14.3 °C 1012.8 hPa NE 5.6 km/h 5.6 km/h 63 % 0.0 mm
11:16 22.0 °C 14.4 °C 1011.7 hPa ENE 3.7 km/h 3.7 km/h 62 % 0.0 mm
11:21 22.3 °C 14.4 °C 1011.7 hPa SE 5.3 km/h 5.3 km/h 61 % 0.0 mm
11:26 22.3 °C 14.4 °C 1011.7 hPa ESE 5.6 km/h 5.6 km/h 61 % 0.0 mm
11:31 22.3 °C 14.4 °C 1012.8 hPa NNE 5.6 km/h 5.6 km/h 61 % 0.0 mm
11:36 22.3 °C 14.4 °C 1012.8 hPa NE 3.9 km/h 3.9 km/h 61 % 0.0 mm
11:41 22.3 °C 14.4 °C 1012.8 hPa ENE 3.7 km/h 3.7 km/h 61 % 0.0 mm
11:46 22.3 °C 14.4 °C 1012.8 hPa NE 5.6 km/h 5.6 km/h 61 % 0.0 mm
11:51 22.3 °C 14.4 °C 1012.8 hPa NW 3.7 km/h 3.7 km/h 61 % 0.0 mm
11:56 22.3 °C 14.4 °C 1012.8 hPa WNW 5.6 km/h 5.6 km/h 61 % 0.0 mm
12:01 22.3 °C 14.4 °C 1012.8 hPa NE 5.6 km/h 5.6 km/h 61 % 0.0 mm
12:11 24.7 °C 14.2 °C 1012.8 hPa East 5.0 km/h 5.0 km/h 52 % 0.0 mm
12:16 24.6 °C 14.1 °C 1011.7 hPa NNE 5.6 km/h 5.6 km/h 52 % 0.0 mm
12:21 24.7 °C 13.9 °C 1011.7 hPa East 3.9 km/h 3.9 km/h 51 % 0.0 mm
12:26 24.9 °C 14.1 °C 1011.7 hPa SE 3.5 km/h 3.5 km/h 51 % 0.0 mm
12:31 25.2 °C 14.1 °C 1011.7 hPa East 4.2 km/h 4.2 km/h 50 % 0.0 mm
12:36 25.1 °C 13.9 °C 1011.7 hPa South 3.7 km/h 3.7 km/h 50 % 0.0 mm
12:41 25.0 °C 13.6 °C 1011.7 hPa NW 3.7 km/h 3.7 km/h 49 % 0.0 mm
12:46 25.2 °C 13.7 °C 1011.7 hPa NNE 5.6 km/h 5.6 km/h 49 % 0.0 mm
12:51 25.4 °C 13.9 °C 1011.7 hPa SSE 9.3 km/h 9.3 km/h 49 % 0.0 mm
12:56 25.4 °C 13.6 °C 1011.7 hPa ESE 5.6 km/h 5.6 km/h 48 % 0.0 mm
13:01 25.4 °C 13.6 °C 1011.7 hPa SE 7.4 km/h 7.4 km/h 48 % 0.0 mm
13:06 25.5 °C 13.3 °C 1011.7 hPa ESE 5.0 km/h 5.0 km/h 47 % 0.0 mm
13:16 25.7 °C 13.9 °C 1011.7 hPa South 3.7 km/h 3.7 km/h 48 % 0.0 mm
13:21 26.0 °C 14.1 °C 1011.7 hPa WSW 7.4 km/h 7.4 km/h 48 % 0.0 mm
13:26 26.6 °C 14.3 °C 1011.7 hPa SW 7.4 km/h 7.4 km/h 47 % 0.0 mm
13:31 26.6 °C 14.3 °C 1010.7 hPa SE 5.8 km/h 5.8 km/h 47 % 0.0 mm
13:36 26.5 °C 13.9 °C 1010.7 hPa East 5.3 km/h 5.3 km/h 46 % 0.0 mm
13:41 26.5 °C 13.9 °C 1010.7 hPa South 3.7 km/h 3.7 km/h 46 % 0.0 mm
13:46 26.5 °C 13.9 °C 1011.7 hPa SE 13.0 km/h 13.0 km/h 46 % 0.0 mm
13:51 25.0 °C 13.2 °C 1011.7 hPa SSW 9.3 km/h 9.3 km/h 48 % 0.0 mm
13:56 24.9 °C 13.8 °C 1011.7 hPa ESE 12.6 km/h 12.6 km/h 50 % 0.0 mm
14:01 25.3 °C 13.8 °C 1011.7 hPa SW 9.3 km/h 9.3 km/h 49 % 0.0 mm
14:06 25.6 °C 14.1 °C 1011.7 hPa WNW 7.4 km/h 7.4 km/h 49 % 0.0 mm
14:11 25.9 °C 14.4 °C 1011.7 hPa SSW 5.0 km/h 5.0 km/h 49 % 0.0 mm
14:16 26.0 °C 14.4 °C 1010.7 hPa East 5.6 km/h 5.6 km/h 49 % 0.0 mm
14:26 25.7 °C 14.2 °C 1010.7 hPa South 9.3 km/h 9.3 km/h 49 % 0.0 mm
14:31 26.1 °C 14.6 °C 1010.7 hPa South 9.7 km/h 9.7 km/h 49 % 0.0 mm
14:36 25.6 °C 14.1 °C 1010.7 hPa SSE 11.1 km/h 11.1 km/h 49 % 0.0 mm
14:46 24.7 °C 13.6 °C 1011.7 hPa ESE 11.1 km/h 11.1 km/h 50 % 0.0 mm
14:51 24.9 °C 14.1 °C 1011.7 hPa East 9.3 km/h 9.3 km/h 51 % 0.0 mm
14:56 24.6 °C 13.8 °C 1011.7 hPa SE 9.3 km/h 9.3 km/h 51 % 0.0 mm
15:01 24.7 °C 13.9 °C 1011.7 hPa ESE 10.3 km/h 10.3 km/h 51 % 0.0 mm
15:06 24.8 °C 14.0 °C 1011.7 hPa South 11.9 km/h 11.9 km/h 51 % 0.0 mm
15:11 25.1 °C 13.9 °C 1011.7 hPa SW 5.6 km/h 5.6 km/h 50 % 0.0 mm
15:16 25.0 °C 13.8 °C 1012.8 hPa West 13.0 km/h 13.0 km/h 50 % 0.0 mm
15:21 25.2 °C 14.1 °C 1012.8 hPa East 7.4 km/h 7.4 km/h 50 % 0.0 mm
15:26 25.5 °C 14.3 °C 1012.8 hPa SW 5.6 km/h 5.6 km/h 50 % 0.0 mm
15:31 25.8 °C 14.6 °C 1011.7 hPa SSW 9.3 km/h 9.3 km/h 50 % 0.0 mm
15:36 26.0 °C 14.8 °C 1011.7 hPa ESE 9.3 km/h 9.3 km/h 50 % 0.0 mm
15:41 26.3 °C 15.1 °C 1011.7 hPa WSW 9.5 km/h 9.5 km/h 50 % 0.0 mm
15:46 26.2 °C 14.7 °C 1011.7 hPa ESE 9.3 km/h 9.3 km/h 49 % 0.0 mm
15:51 25.9 °C 14.4 °C 1011.7 hPa SSW 4.2 km/h 4.2 km/h 49 % 0.0 mm
15:56 26.0 °C 14.4 °C 1011.7 hPa ENE 7.4 km/h 7.4 km/h 49 % 0.0 mm
16:01 25.9 °C 14.4 °C 1011.7 hPa South 7.4 km/h 7.4 km/h 49 % 0.0 mm
16:06 25.9 °C 14.4 °C 1011.7 hPa South 7.4 km/h 7.4 km/h 49 % 0.0 mm
16:11 26.4 °C 14.5 °C 1011.7 hPa East 11.1 km/h 11.1 km/h 48 % 0.0 mm
16:16 25.8 °C 13.9 °C 1011.7 hPa ESE 13.0 km/h 13.0 km/h 48 % 0.0 mm
16:26 25.7 °C 13.6 °C 1011.7 hPa SE 13.0 km/h 13.0 km/h 47 % 0.0 mm
16:31 25.8 °C 13.6 °C 1011.7 hPa East 9.3 km/h 9.3 km/h 47 % 0.0 mm
16:36 25.1 °C 13.3 °C 1011.7 hPa NE 10.0 km/h 10.0 km/h 48 % 0.0 mm
16:41 25.1 °C 13.3 °C 1011.7 hPa East 14.8 km/h 14.8 km/h 48 % 0.0 mm
16:46 24.9 °C 13.4 °C 1011.7 hPa ENE 16.7 km/h 16.7 km/h 49 % 0.0 mm
16:51 24.9 °C 13.4 °C 1011.7 hPa ESE 11.1 km/h 11.1 km/h 49 % 0.0 mm
16:56 25.1 °C 13.3 °C 1011.7 hPa East 13.0 km/h 13.0 km/h 48 % 0.0 mm
17:01 25.3 °C 13.5 °C 1011.7 hPa SE 9.3 km/h 9.3 km/h 48 % 0.0 mm
17:06 25.2 °C 13.4 °C 1011.7 hPa ENE 11.1 km/h 11.1 km/h 48 % 0.0 mm
17:11 25.2 °C 13.4 °C 1011.7 hPa SSE 9.3 km/h 9.3 km/h 48 % 0.0 mm
17:16 25.0 °C 13.2 °C 1011.7 hPa ESE 13.0 km/h 13.0 km/h 48 % 0.0 mm
17:21 25.2 °C 13.4 °C 1011.7 hPa SW 9.3 km/h 9.3 km/h 48 % 0.0 mm
17:26 25.3 °C 13.5 °C 1011.7 hPa ESE 16.7 km/h 16.7 km/h 48 % 0.0 mm
17:31 25.3 °C 13.5 °C 1010.7 hPa ENE 17.2 km/h 17.2 km/h 48 % 0.0 mm
17:36 25.3 °C 13.5 °C 1010.7 hPa SE 20.4 km/h 20.4 km/h 48 % 0.0 mm
17:41 25.3 °C 13.5 °C 1010.7 hPa NE 13.0 km/h 13.0 km/h 48 % 0.0 mm
17:46 25.8 °C 13.9 °C 1010.7 hPa SE 11.1 km/h 11.1 km/h 48 % 0.0 mm
17:51 25.2 °C 13.4 °C 1010.7 hPa NNE 13.0 km/h 13.0 km/h 48 % 0.0 mm
17:56 24.6 °C 13.2 °C 1010.7 hPa ENE 24.1 km/h 24.1 km/h 49 % 0.0 mm
18:01 24.4 °C 13.3 °C 1010.7 hPa ESE 14.8 km/h 14.8 km/h 50 % 0.0 mm
18:06 24.3 °C 13.2 °C 1010.7 hPa ESE 15.8 km/h 15.8 km/h 50 % 0.0 mm
18:11 24.4 °C 13.3 °C 1010.7 hPa ENE 12.6 km/h 12.6 km/h 50 % 0.0 mm
18:16 24.4 °C 13.3 °C 1011.7 hPa East 16.7 km/h 16.7 km/h 50 % 0.0 mm
18:21 24.0 °C 13.2 °C 1011.7 hPa ESE 20.4 km/h 20.4 km/h 51 % 0.0 mm
18:26 24.0 °C 13.2 °C 1011.7 hPa ESE 19.0 km/h 19.0 km/h 51 % 0.0 mm
18:31 24.0 °C 13.2 °C 1010.7 hPa ESE 22.2 km/h 22.2 km/h 51 % 0.0 mm
18:41 23.4 °C 12.7 °C 1010.7 hPa NW 16.7 km/h 16.7 km/h 51 % 0.0 mm
18:46 23.5 °C 12.8 °C 1010.7 hPa ESE 19.8 km/h 19.8 km/h 51 % 0.0 mm
18:51 23.3 °C 12.6 °C 1010.7 hPa ESE 11.1 km/h 11.1 km/h 51 % 0.0 mm
18:56 23.1 °C 12.7 °C 1010.7 hPa ENE 16.7 km/h 16.7 km/h 52 % 0.0 mm
19:01 23.2 °C 12.8 °C 1010.7 hPa ESE 11.1 km/h 15.1 km/h 52 % 0.0 mm
19:07 23.0 °C 12.6 °C 1010.7 hPa SE 13.0 km/h 13.0 km/h 52 % 0.0 mm
19:10 18.4 °C 11.9 °C 1014.8 hPa East 3.2 km/h 3.2 km/h 66 % 0.0 mm
19:12 22.8 °C 12.7 °C 1010.7 hPa ESE 16.7 km/h 16.7 km/h 53 % 0.0 mm
19:17 22.7 °C 12.6 °C 1011.7 hPa East 13.0 km/h 13.0 km/h 53 % 0.0 mm
19:22 22.6 °C 12.8 °C 1011.7 hPa ENE 13.0 km/h 13.0 km/h 54 % 0.0 mm
19:27 22.5 °C 12.7 °C 1011.7 hPa SSW 16.7 km/h 16.7 km/h 54 % 0.0 mm
19:30 18.2 °C 11.7 °C 1013.8 hPa NE 3.2 km/h 3.2 km/h 66 % 0.0 mm
19:32 22.5 °C 12.7 °C 1011.7 hPa East 14.8 km/h 14.8 km/h 54 % 0.0 mm
19:37 22.3 °C 12.6 °C 1011.7 hPa SSE 13.0 km/h 13.0 km/h 54 % 0.0 mm
19:40 18.0 °C 11.3 °C 1013.8 hPa NE 3.2 km/h 3.2 km/h 65 % 0.0 mm
19:43 22.2 °C 12.4 °C 1011.7 hPa East 11.1 km/h 11.1 km/h 54 % 0.0 mm
19:48 22.0 °C 12.3 °C 1011.7 hPa ESE 7.9 km/h 7.9 km/h 54 % 0.0 mm
19:50 17.8 °C 11.6 °C 1013.8 hPa NE 3.2 km/h 3.2 km/h 67 % 0.0 mm
19:53 21.8 °C 12.3 °C 1011.7 hPa ESE 22.2 km/h 22.2 km/h 55 % 0.0 mm
20:00 17.8 °C 11.6 °C 1013.8 hPa NE 3.2 km/h 3.2 km/h 67 % 0.0 mm
20:03 21.7 °C 12.6 °C 1011.7 hPa ESE 15.1 km/h 15.1 km/h 56 % 0.0 mm
20:08 21.7 °C 12.6 °C 1011.7 hPa ESE 5.6 km/h 5.6 km/h 56 % 0.0 mm
20:10 17.9 °C 11.9 °C 1013.8 hPa NE 3.2 km/h 3.2 km/h 68 % 0.0 mm
20:13 21.5 °C 12.3 °C 1011.7 hPa ENE 9.5 km/h 9.5 km/h 56 % 0.0 mm
20:18 21.5 °C 12.3 °C 1010.7 hPa SSW 9.5 km/h 9.5 km/h 56 % 0.0 mm
20:20 17.8 °C 12.1 °C 1013.8 hPa NE 3.2 km/h 3.2 km/h 69 % 0.0 mm
20:23 21.5 °C 12.3 °C 1010.7 hPa South 3.7 km/h 3.9 km/h 56 % 0.0 mm
20:28 21.5 °C 12.6 °C 1010.7 hPa South 9.3 km/h 9.3 km/h 57 % 0.0 mm
20:30 17.7 °C 12.2 °C 1013.8 hPa NE 3.2 km/h 3.2 km/h 70 % 0.0 mm
20:33 21.4 °C 12.5 °C 1011.7 hPa ESE 11.9 km/h 11.9 km/h 57 % 0.0 mm
20:38 21.3 °C 12.4 °C 1011.7 hPa South 5.6 km/h 5.8 km/h 57 % 0.0 mm
20:40 17.4 °C 11.9 °C 1013.8 hPa NE 3.2 km/h 3.2 km/h 70 % 0.0 mm
20:43 21.2 °C 12.3 °C 1011.7 hPa ESE 9.5 km/h 9.7 km/h 57 % 0.0 mm
20:48 21.0 °C 12.2 °C 1011.7 hPa ESE 9.5 km/h 9.7 km/h 57 % 0.0 mm
20:50 17.2 °C 11.9 °C 1013.8 hPa NE 1.6 km/h 3.2 km/h 71 % 0.0 mm
20:53 20.9 °C 12.3 °C 1011.7 hPa ESE 9.5 km/h 9.7 km/h 58 % 0.0 mm
20:58 20.8 °C 12.2 °C 1011.7 hPa ESE 9.5 km/h 9.7 km/h 58 % 0.0 mm
21:00 17.2 °C 11.9 °C 1013.8 hPa SW 1.6 km/h   71 % 0.0 mm
21:03 20.6 °C 12.3 °C 1011.7 hPa ESE 9.5 km/h 9.7 km/h 59 % 0.0 mm
21:08 20.5 °C 12.2 °C 1011.7 hPa ESE 9.5 km/h 9.7 km/h 59 % 0.0 mm
21:10 17.2 °C 11.9 °C 1013.8 hPa SW 1.6 km/h   71 % 0.0 mm
21:13 20.3 °C 12.0 °C 1011.7 hPa ESE 9.5 km/h 9.7 km/h 59 % 0.0 mm
21:18 20.3 °C 12.0 °C 1012.8 hPa ESE 9.5 km/h 9.7 km/h 59 % 0.0 mm
21:20 17.2 °C 12.1 °C 1013.8 hPa SW 1.6 km/h   72 % 0.0 mm
21:23 20.2 °C 12.2 °C 1012.8 hPa ESE 9.5 km/h 9.7 km/h 60 % 0.0 mm
21:28 20.1 °C 12.1 °C 1012.8 hPa ESE 9.5 km/h 9.7 km/h 60 % 0.0 mm
21:30 16.7 °C 12.1 °C 1013.8 hPa SW 1.6 km/h   74 % 0.0 mm
21:33 20.0 °C 12.2 °C 1012.8 hPa ESE 9.5 km/h 9.7 km/h 61 % 0.0 mm
21:40 16.6 °C 11.9 °C 1013.8 hPa SW 1.6 km/h   74 % 0.0 mm
21:43 19.9 °C 12.4 °C 1012.8 hPa ESE 9.5 km/h 9.7 km/h 62 % 0.0 mm
21:48 19.8 °C 12.3 °C 1013.8 hPa ESE 9.5 km/h 9.7 km/h 62 % 0.0 mm
21:50 16.6 °C 11.9 °C 1013.8 hPa SW 1.6 km/h   74 % 0.0 mm
21:53 19.7 °C 12.2 °C 1013.8 hPa ESE 9.5 km/h 9.7 km/h 62 % 0.0 mm
21:58 19.6 °C 12.4 °C 1013.8 hPa ESE 9.5 km/h 9.7 km/h 63 % 0.0 mm
22:00 16.5 °C 12.1 °C 1012.8 hPa SW 1.6 km/h   75 % 0.0 mm
22:03 19.6 °C 12.4 °C 1013.8 hPa ESE 9.5 km/h 9.7 km/h 63 % 0.0 mm
22:08 19.5 °C 12.3 °C 1013.8 hPa ESE 9.5 km/h 9.7 km/h 63 % 0.0 mm
22:10 16.5 °C 12.1 °C 1012.8 hPa SW 1.6 km/h   75 % 0.0 mm
22:13 19.4 °C 12.2 °C 1013.8 hPa ESE 9.5 km/h 9.7 km/h 63 % 0.0 mm
22:18 19.4 °C 12.2 °C 1013.8 hPa ESE 9.5 km/h 9.7 km/h 63 % 0.0 mm
22:20 16.6 °C 12.2 °C 1013.8 hPa SW 1.6 km/h   75 % 0.0 mm
22:23 19.4 °C 12.2 °C 1013.8 hPa ESE 9.5 km/h 9.7 km/h 63 % 0.0 mm
22:30 16.6 °C 12.3 °C 1013.8 hPa SW 1.6 km/h   76 % 0.0 mm
22:33 19.4 °C 12.2 °C 1013.8 hPa ESE 9.5 km/h 9.7 km/h 63 % 0.0 mm
22:39 19.3 °C 12.1 °C 1013.8 hPa ESE 9.5 km/h 9.7 km/h 63 % 0.0 mm
22:40 16.7 °C 12.4 °C 1013.8 hPa SW 1.6 km/h   76 % 0.0 mm
22:44 19.3 °C 12.1 °C 1013.8 hPa ESE 9.5 km/h 9.7 km/h 63 % 0.0 mm
22:49 19.3 °C 12.1 °C 1013.8 hPa ESE 9.5 km/h 9.7 km/h 63 % 0.0 mm
22:50 16.8 °C 12.3 °C 1013.8 hPa SW 1.6 km/h   75 % 0.0 mm
22:54 19.3 °C 12.1 °C 1013.8 hPa ESE 9.5 km/h 9.7 km/h 63 % 0.0 mm
22:59 19.1 °C 11.9 °C 1013.8 hPa ESE 9.5 km/h 9.7 km/h 63 % 0.0 mm
23:00 16.9 °C 12.4 °C 1013.8 hPa SW 1.6 km/h   75 % 0.0 mm
23:04 19.0 °C 11.8 °C 1013.8 hPa ESE 9.5 km/h 9.7 km/h 63 % 0.0 mm
23:09 18.9 °C 11.9 °C 1013.8 hPa ESE 9.5 km/h 9.7 km/h 64 % 0.0 mm
23:10 17.1 °C 12.2 °C 1013.8 hPa SW 1.6 km/h   73 % 0.0 mm
23:14 18.9 °C 12.2 °C 1013.8 hPa ESE 9.5 km/h 9.7 km/h 65 % 0.0 mm
23:19 18.9 °C 12.2 °C 1013.8 hPa ESE 9.5 km/h 9.7 km/h 65 % 0.0 mm
23:20 17.1 °C 12.4 °C 1013.8 hPa SW 1.6 km/h   74 % 0.0 mm
23:24 18.8 °C 12.1 °C 1013.8 hPa ESE 9.5 km/h 9.7 km/h 65 % 0.0 mm
23:29 18.8 °C 12.1 °C 1014.8 hPa ESE 9.5 km/h 9.7 km/h 65 % 0.0 mm
23:30 17.2 °C 12.3 °C 1013.8 hPa SW 1.6 km/h   73 % 0.0 mm
23:34 18.8 °C 12.1 °C 1014.8 hPa ESE 9.5 km/h 9.7 km/h 65 % 0.0 mm
23:39 18.8 °C 12.1 °C 1014.8 hPa ESE 9.5 km/h 9.7 km/h 65 % 0.0 mm
23:40 17.3 °C 12.4 °C 1013.8 hPa SW 1.6 km/h   73 % 0.0 mm
23:44 18.8 °C 12.1 °C 1013.8 hPa ESE 9.5 km/h 9.7 km/h 65 % 0.0 mm
23:49 18.8 °C 12.1 °C 1013.8 hPa ESE 9.5 km/h 9.7 km/h 65 % 0.0 mm
23:50 17.3 °C 12.4 °C 1013.8 hPa SW 1.6 km/h   73 % 0.0 mm
23:54 18.8 °C 12.1 °C 1013.8 hPa ESE 9.5 km/h 9.7 km/h 65 % 0.0 mm
23:59 18.5 °C 12.0 °C 1014.8 hPa ESE 9.5 km/h 9.7 km/h 66 % 0.0 mm
Meteo Sesrovires
Elogis d' Weather Underground - 3.5 mb

Guio original per  Jim McMurry - jmcmurry@mwt.net Adaptat per a la plantilla per  Wim van der Kuil - Leuven-Template.eu

Trobareu la nostra informacio del temps tambe a:

Weather Underground

AWEKAS